Terminal Aerodrome Forecast
Issued by NWS

Home | Current Version | Previous Version | Graphics & Text | Print | Product List | Glossary On
Versions: 1 2 3 4 5 6 7 8 9 10 11 12 13 14 15 16 17 18 19 20 21 22 23 24 25 26 27 28 29
000
FTUS43 KGRB 190500
TAFAUW
TAF
KAUW 190520Z 1906/2006 16006KT P6SM VCSH SCT006 BKN035
      TEMPO 1906/1908 2SM TSRA BR BKN015CB
     FM190900 19004KT 4SM BR SCT003 BKN009
      TEMPO 1909/1913 2SM BR BKN003
     FM191400 26005KT 5SM BR BKN018
     FM191800 29006KT P6SM VCSH BKN035
      TEMPO 1919/1923 2SM +TSRA BR BKN022CB
     FM200300 32003KT 3SM BR BKN012=

USA.gov is the U.S. government's official web portal to all federal, state and local government web resources and services.